Time;durP1;ratioP1;P1;durP2;ratioP2;P2;SDS_P1;SDS_P2;PMS_P1;PMS_P2;Temp;Humidity;BMP_temperature;BMP_pressure;BME280_temperature;BME280_humidity;BME280_pressure;Samples;Min_cycle;Max_cycle;Signal;HPM_P1;HPM_P2
2022/05/31 00:00:28;;;;;;;26.85;11.55;;;;;;;;;;1670523;83;20975;-85
2022/05/31 00:02:54;;;;;;;23.40;10.98;;;;;;;;;;1670486;85;21001;-84
2022/05/31 00:05:20;;;;;;;19.70;10.58;;;;;;;;;;1670378;85;21045;-90
2022/05/31 00:07:46;;;;;;;26.00;10.88;;;;;;;;;;1670321;83;20990;-85
2022/05/31 00:10:14;;;;;;;21.02;10.68;;;;;;;;;;1670416;83;20999;-84
2022/05/31 00:12:40;;;;;;;19.65;11.03;;;;;;;;;;1670271;83;21015;-83
2022/05/31 00:15:07;;;;;;;18.62;11.03;;;;;;;;;;1670319;84;21627;-84
2022/05/31 00:17:33;;;;;;;19.75;10.20;;;;;;;;;;1670269;83;21474;-85
2022/05/31 00:19:59;;;;;;;21.62;10.55;;;;;;;;;;1670406;83;21919;-82
2022/05/31 00:22:26;;;;;;;17.70;10.53;;;;;;;;;;1676693;82;21104;-85
2022/05/31 00:24:52;;;;;;;21.68;10.72;;;;;;;;;;1712873;83;21140;-82
2022/05/31 00:27:21;;;;;;;18.35;9.75;;;;;;;;;;1712988;82;21089;-83
2022/05/31 00:29:47;;;;;;;18.40;9.43;;;;;;;;;;1712967;83;21026;-84
2022/05/31 00:32:15;;;;;;;20.25;10.20;;;;;;;;;;1712608;83;21002;-83
2022/05/31 00:34:43;;;;;;;17.05;9.48;;;;;;;;;;1712725;82;21883;-83
2022/05/31 00:37:09;;;;;;;19.75;9.33;;;;;;;;;;1712739;83;21095;-83
2022/05/31 00:39:36;;;;;;;18.10;9.48;;;;;;;;;;1712711;83;21058;-83
2022/05/31 00:42:08;;;;;;;19.37;11.08;;;;;;;;;;1712911;83;20995;-84
2022/05/31 00:44:35;;;;;;;18.05;9.13;;;;;;;;;;1688939;83;21500;-83
2022/05/31 00:47:05;;;;;;;18.52;9.38;;;;;;;;;;1712860;82;21835;-83
2022/05/31 00:49:43;;;;;;;18.50;9.50;;;;;;;;;;1708705;83;21012;-83
2022/05/31 00:52:18;;;;;;;16.70;9.85;;;;;;;;;;1712822;83;21095;-83
2022/05/31 00:55:08;;;;;;;22.15;9.85;;;;;;;;;;1731681;81;21070;-83
2022/05/31 00:57:36;;;;;;;22.82;9.95;;;;;;;;;;1756550;81;21046;-83
2022/05/31 01:00:12;;;;;;;20.97;9.88;;;;;;;;;;1756485;81;22077;-83
2022/05/31 01:02:40;;;;;;;23.25;11.30;;;;;;;;;;1756279;81;21067;-83
2022/05/31 01:05:08;;;;;;;19.95;10.43;;;;;;;;;;1756635;81;21042;-83
2022/05/31 01:07:34;;;;;;;18.65;9.88;;;;;;;;;;1756631;81;21483;-83
2022/05/31 01:10:00;;;;;;;20.57;10.40;;;;;;;;;;1756605;81;20963;-83
2022/05/31 01:12:26;;;;;;;17.48;9.98;;;;;;;;;;1756516;81;21873;-86
2022/05/31 01:14:52;;;;;;;18.90;9.65;;;;;;;;;;1756444;81;21030;-83
2022/05/31 01:17:20;;;;;;;20.85;9.83;;;;;;;;;;1756713;81;20980;-83
2022/05/31 01:19:56;;;;;;;16.27;9.18;;;;;;;;;;1689259;84;21203;-83
2022/05/31 01:22:43;;;;;;;17.10;10.05;;;;;;;;;;1689098;84;21022;-83
2022/05/31 01:25:46;;;;;;;17.95;9.45;;;;;;;;;;1688716;84;21765;-83
2022/05/31 01:28:18;;;;;;;19.07;10.45;;;;;;;;;;1689093;84;21125;-83
2022/05/31 01:31:00;;;;;;;21.82;10.35;;;;;;;;;;1689458;84;21115;-83
2022/05/31 01:33:32;;;;;;;19.05;10.55;;;;;;;;;;1646852;87;21407;-84
2022/05/31 01:36:01;;;;;;;21.35;9.90;;;;;;;;;;1640250;87;21036;-83
2022/05/31 01:38:36;;;;;;;16.87;9.85;;;;;;;;;;1642892;87;21190;-83
2022/05/31 01:41:08;;;;;;;21.15;9.93;;;;;;;;;;1639029;86;21064;-83
2022/05/31 01:43:34;;;;;;;17.48;9.65;;;;;;;;;;1642021;86;21126;-83
2022/05/31 01:46:02;;;;;;;21.35;10.38;;;;;;;;;;1660051;85;21738;-83
2022/05/31 01:48:29;;;;;;;23.65;10.53;;;;;;;;;;1660188;85;20969;-83
2022/05/31 01:50:55;;;;;;;15.43;9.63;;;;;;;;;;1660215;86;21095;-83
2022/05/31 01:53:20;;;;;;;17.02;9.20;;;;;;;;;;1660191;86;21440;-81
2022/05/31 01:55:48;;;;;;;19.57;10.05;;;;;;;;;;1660151;86;21682;-83
2022/05/31 01:58:20;;;;;;;19.95;9.73;;;;;;;;;;1657967;86;20972;-84
2022/05/31 02:00:45;;;;;;;20.37;9.95;;;;;;;;;;1660170;86;21116;-84
2022/05/31 02:03:13;;;;;;;17.57;9.53;;;;;;;;;;1660155;86;21094;-83
2022/05/31 02:05:52;;;;;;;20.32;9.93;;;;;;;;;;1660234;86;21058;-84
2022/05/31 02:08:20;;;;;;;16.97;9.85;;;;;;;;;;1652061;86;21471;-83
2022/05/31 02:10:47;;;;;;;20.88;10.35;;;;;;;;;;1660159;85;21548;-86
2022/05/31 02:13:13;;;;;;;21.25;10.82;;;;;;;;;;1661317;84;21119;-83
2022/05/31 02:15:39;;;;;;;21.57;10.65;;;;;;;;;;1640558;86;21110;-83
2022/05/31 02:18:05;;;;;;;15.85;9.30;;;;;;;;;;1640458;86;20979;-83
2022/05/31 02:20:31;;;;;;;18.20;8.83;;;;;;;;;;1640512;86;21074;-83
2022/05/31 02:22:57;;;;;;;18.23;9.55;;;;;;;;;;1640356;86;20939;-83
2022/05/31 02:25:23;;;;;;;17.82;9.65;;;;;;;;;;1640375;86;20877;-80
2022/05/31 02:27:48;;;;;;;16.27;8.65;;;;;;;;;;1640277;86;21090;-81
2022/05/31 02:30:14;;;;;;;17.82;9.45;;;;;;;;;;1676939;83;20829;-82
2022/05/31 02:32:41;;;;;;;16.40;8.68;;;;;;;;;;1718643;83;20982;-83
2022/05/31 02:35:09;;;;;;;20.52;9.25;;;;;;;;;;1719062;83;21492;-84
2022/05/31 02:37:35;;;;;;;14.23;8.45;;;;;;;;;;1717278;82;20998;-83
2022/05/31 02:40:01;;;;;;;20.45;9.63;;;;;;;;;;1718990;83;21083;-83
2022/05/31 02:42:27;;;;;;;22.58;8.63;;;;;;;;;;1689031;83;20915;-83
2022/05/31 02:44:53;;;;;;;21.55;9.08;;;;;;;;;;1719152;83;21064;-83
2022/05/31 02:47:20;;;;;;;17.62;9.15;;;;;;;;;;1719199;83;21047;-83
2022/05/31 02:49:46;;;;;;;14.58;8.30;;;;;;;;;;1719090;83;21078;-83
2022/05/31 02:52:12;;;;;;;17.77;9.08;;;;;;;;;;1718673;83;21881;-83
2022/05/31 02:54:38;;;;;;;19.65;8.83;;;;;;;;;;1718956;83;20975;-83
2022/05/31 02:57:05;;;;;;;17.20;8.48;;;;;;;;;;1718993;83;20951;-82
2022/05/31 02:59:30;;;;;;;17.10;8.33;;;;;;;;;;1719269;83;21011;-83
2022/05/31 03:01:56;;;;;;;17.95;8.38;;;;;;;;;;1719326;83;20884;-83
2022/05/31 03:04:22;;;;;;;16.05;8.25;;;;;;;;;;1713157;83;21019;-81
2022/05/31 03:06:48;;;;;;;15.65;8.15;;;;;;;;;;1683092;83;20966;-82
2022/05/31 03:09:13;;;;;;;15.28;7.90;;;;;;;;;;1711057;83;20899;-82
2022/05/31 03:11:57;;;;;;;16.32;8.08;;;;;;;;;;1711213;83;20942;-83
2022/05/31 03:14:29;;;;;;;16.10;8.15;;;;;;;;;;1640339;86;21185;-81
2022/05/31 03:17:17;;;;;;;16.52;7.75;;;;;;;;;;1626868;88;21117;-82
2022/05/31 03:19:46;;;;;;;15.55;7.72;;;;;;;;;;1619156;88;21079;-83
2022/05/31 03:22:14;;;;;;;13.00;6.75;;;;;;;;;;1596563;89;21103;-83
2022/05/31 03:24:47;;;;;;;14.25;6.90;;;;;;;;;;1599730;89;21047;-83
2022/05/31 03:27:12;;;;;;;11.20;6.47;;;;;;;;;;1510682;93;21033;-83
2022/05/31 03:29:42;;;;;;;9.75;5.92;;;;;;;;;;1526149;92;20935;-83
2022/05/31 03:32:08;;;;;;;14.35;5.78;;;;;;;;;;1543749;92;21122;-81
2022/05/31 03:34:34;;;;;;;14.73;6.40;;;;;;;;;;1546779;92;21671;-82
2022/05/31 03:37:00;;;;;;;10.30;5.37;;;;;;;;;;1545332;92;20924;-83
2022/05/31 03:39:25;;;;;;;10.55;5.67;;;;;;;;;;1545189;92;21051;-83
2022/05/31 03:41:51;;;;;;;12.40;5.58;;;;;;;;;;1546644;91;21019;-82
2022/05/31 03:44:17;;;;;;;12.25;5.83;;;;;;;;;;1546749;91;21013;-83
2022/05/31 03:46:42;;;;;;;14.38;5.28;;;;;;;;;;1524331;93;20975;-82
2022/05/31 03:49:09;;;;;;;11.48;5.50;;;;;;;;;;1524881;93;21686;-82
2022/05/31 03:51:34;;;;;;;13.80;5.47;;;;;;;;;;1505517;94;21712;-85
2022/05/31 03:54:00;;;;;;;10.03;5.45;;;;;;;;;;1524648;92;21191;-82
2022/05/31 03:56:26;;;;;;;11.03;5.40;;;;;;;;;;1527157;93;20930;-84
2022/05/31 03:58:51;;;;;;;11.80;5.55;;;;;;;;;;1533443;92;20992;-83
2022/05/31 04:01:18;;;;;;;13.65;5.75;;;;;;;;;;1533219;93;20888;-82
2022/05/31 04:03:44;;;;;;;12.25;6.08;;;;;;;;;;1533140;92;21100;-83
2022/05/31 04:06:10;;;;;;;9.80;5.53;;;;;;;;;;1550252;90;21604;-84
2022/05/31 04:08:36;;;;;;;10.68;5.90;;;;;;;;;;1582344;89;21010;-85
2022/05/31 04:11:01;;;;;;;11.75;5.75;;;;;;;;;;1582302;89;21402;-82
2022/05/31 04:13:28;;;;;;;17.67;7.97;;;;;;;;;;1596941;88;20900;-83
2022/05/31 04:16:10;;;;;;;16.80;8.15;;;;;;;;;;1640132;87;21109;-83
2022/05/31 04:18:37;;;;;;;15.72;8.43;;;;;;;;;;1600836;88;21594;-85
2022/05/31 04:21:05;;;;;;;16.10;6.78;;;;;;;;;;1622615;87;20989;-83
2022/05/31 04:26:16;;;;;;;11.00;5.72;;;;;;;;;;1707310;83;21044;-83
2022/05/31 04:28:42;;;;;;;14.93;4.95;;;;;;;;;;1712084;83;21021;-83
2022/05/31 04:31:07;;;;;;;9.08;5.62;;;;;;;;;;1712330;83;21151;-85
2022/05/31 04:33:33;;;;;;;13.93;5.40;;;;;;;;;;1712133;83;21647;-84
2022/05/31 04:36:04;;;;;;;12.90;5.50;;;;;;;;;;1712204;83;20891;-83
2022/05/31 04:38:30;;;;;;;8.30;5.12;;;;;;;;;;1638900;86;21023;-84
2022/05/31 04:40:55;;;;;;;12.85;5.42;;;;;;;;;;1640117;87;21040;-87
2022/05/31 04:43:21;;;;;;;10.98;5.40;;;;;;;;;;1640368;87;21093;-90
2022/05/31 04:45:47;;;;;;;10.70;5.17;;;;;;;;;;1631536;86;21030;-84
2022/05/31 04:48:13;;;;;;;12.00;5.70;;;;;;;;;;1621779;86;20920;-83
2022/05/31 04:50:38;;;;;;;12.07;5.33;;;;;;;;;;1621795;87;21158;-84
2022/05/31 04:53:04;;;;;;;13.03;5.15;;;;;;;;;;1622543;88;20869;-84
2022/05/31 04:55:30;;;;;;;9.53;5.50;;;;;;;;;;1656322;85;21587;-83
2022/05/31 04:57:56;;;;;;;14.93;5.50;;;;;;;;;;1680727;85;20918;-86
2022/05/31 05:00:21;;;;;;;11.40;5.08;;;;;;;;;;1680744;85;20929;-84
2022/05/31 05:02:47;;;;;;;13.20;5.20;;;;;;;;;;1680661;85;20850;-85
2022/05/31 05:05:13;;;;;;;10.43;5.10;;;;;;;;;;1680833;85;21730;-86
2022/05/31 05:07:39;;;;;;;7.28;5.05;;;;;;;;;;1680831;85;21140;-82
2022/05/31 05:10:06;;;;;;;9.65;5.58;;;;;;;;;;1680588;85;21477;-84
2022/05/31 05:12:32;;;;;;;14.50;5.45;;;;;;;;;;1679705;85;21119;-84
2022/05/31 05:14:57;;;;;;;10.00;5.65;;;;;;;;;;1671225;85;21076;-84
2022/05/31 05:17:24;;;;;;;12.53;5.10;;;;;;;;;;1663664;85;21772;-85
2022/05/31 05:19:49;;;;;;;10.38;5.78;;;;;;;;;;1663508;85;21145;-84
2022/05/31 05:22:15;;;;;;;9.58;5.70;;;;;;;;;;1663536;85;21625;-86
2022/05/31 05:24:41;;;;;;;13.60;5.80;;;;;;;;;;1663588;85;21363;-85
2022/05/31 05:27:07;;;;;;;14.68;5.70;;;;;;;;;;1662987;85;20983;-84
2022/05/31 05:32:16;;;;;;;13.22;5.78;;;;;;;;;;1663063;86;21015;-85
2022/05/31 05:34:42;;;;;;;16.02;6.25;;;;;;;;;;1675044;83;20837;-84
2022/05/31 05:37:08;;;;;;;13.80;7.00;;;;;;;;;;1714100;82;21599;-87
2022/05/31 05:39:34;;;;;;;17.05;6.72;;;;;;;;;;1714316;83;20869;-84
2022/05/31 05:41:59;;;;;;;16.97;7.28;;;;;;;;;;1714325;82;20884;-85
2022/05/31 05:44:26;;;;;;;15.63;6.83;;;;;;;;;;1714391;83;21623;-85
2022/05/31 05:46:52;;;;;;;21.02;8.00;;;;;;;;;;1739528;82;21517;-85
2022/05/31 05:49:17;;;;;;;16.85;8.40;;;;;;;;;;1743793;81;20960;-84
2022/05/31 05:51:48;;;;;;;26.27;8.10;;;;;;;;;;1743625;81;20909;-87
2022/05/31 05:54:14;;;;;;;19.02;9.03;;;;;;;;;;1743549;81;21004;-84
2022/05/31 05:56:39;;;;;;;17.65;8.85;;;;;;;;;;1743941;81;21146;-86
2022/05/31 05:59:06;;;;;;;23.00;10.40;;;;;;;;;;1743896;81;20900;-86
2022/05/31 06:01:47;;;;;;;25.68;10.72;;;;;;;;;;1742597;82;20969;-85
2022/05/31 06:04:41;;;;;;;32.70;12.87;;;;;;;;;;1742080;82;21058;-86
2022/05/31 06:07:10;;;;;;;29.02;13.00;;;;;;;;;;1743791;81;21032;-87
2022/05/31 06:09:36;;;;;;;33.55;14.68;;;;;;;;;;1742365;82;21992;-92
2022/05/31 06:12:08;;;;;;;27.42;14.23;;;;;;;;;;1726303;82;21020;-86
2022/05/31 06:14:40;;;;;;;33.50;17.90;;;;;;;;;;1730764;82;22278;-87
2022/05/31 06:17:15;;;;;;;42.60;16.05;;;;;;;;;;1649620;86;21104;-88
2022/05/31 06:19:41;;;;;;;33.70;16.62;;;;;;;;;;1649761;87;21036;-85
2022/05/31 06:22:07;;;;;;;33.53;17.50;;;;;;;;;;1649765;87;21169;-88
2022/05/31 06:24:35;;;;;;;45.95;20.05;;;;;;;;;;1649687;87;22154;-85
2022/05/31 06:27:01;;;;;;;42.10;20.43;;;;;;;;;;1648976;85;21021;-85
2022/05/31 06:29:30;;;;;;;43.83;21.87;;;;;;;;;;1645953;87;21150;-86
2022/05/31 06:31:56;;;;;;;50.75;23.00;;;;;;;;;;1635762;87;21132;-91
2022/05/31 06:34:23;;;;;;;57.48;25.55;;;;;;;;;;1643744;85;21173;-85
2022/05/31 06:36:50;;;;;;;60.55;26.80;;;;;;;;;;1619030;88;21571;-83
2022/05/31 06:39:16;;;;;;;57.95;26.40;;;;;;;;;;1638400;85;21133;-85
2022/05/31 06:41:42;;;;;;;60.92;27.02;;;;;;;;;;1632193;87;21046;-89
2022/05/31 06:44:07;;;;;;;59.08;27.90;;;;;;;;;;1636918;86;20956;-88
2022/05/31 06:46:33;;;;;;;55.80;26.25;;;;;;;;;;1636501;86;21330;-87
2022/05/31 06:49:02;;;;;;;59.90;25.68;;;;;;;;;;1638532;85;21725;-89
2022/05/31 06:56:55;;;;;;;62.35;27.70;;;;;;;;;;1589567;90;21625;-85
2022/05/31 06:59:20;;;;;;;62.62;27.73;;;;;;;;;;1497411;94;21330;-85
2022/05/31 07:01:47;;;;;;;62.80;29.07;;;;;;;;;;1497388;94;21076;-84
2022/05/31 07:04:14;;;;;;;59.95;30.48;;;;;;;;;;1493944;95;21131;-85
2022/05/31 07:06:40;;;;;;;57.05;28.60;;;;;;;;;;1497391;94;21072;-84
2022/05/31 07:09:06;;;;;;;56.28;28.32;;;;;;;;;;1511539;92;21053;-85
2022/05/31 07:11:31;;;;;;;53.17;27.05;;;;;;;;;;1509418;93;21930;-88
2022/05/31 07:13:57;;;;;;;61.50;27.77;;;;;;;;;;1521536;92;20954;-83
2022/05/31 07:16:24;;;;;;;56.80;27.17;;;;;;;;;;1566985;90;20932;-86
2022/05/31 07:18:49;;;;;;;57.98;26.65;;;;;;;;;;1568329;91;21571;-84
2022/05/31 07:21:15;;;;;;;53.75;26.07;;;;;;;;;;1568065;90;21850;-84
2022/05/31 07:23:41;;;;;;;47.60;25.77;;;;;;;;;;1567058;90;21174;-88
2022/05/31 07:26:08;;;;;;;53.28;24.15;;;;;;;;;;1568387;90;21506;-89
2022/05/31 07:28:34;;;;;;;48.48;23.85;;;;;;;;;;1568367;91;21096;-86
2022/05/31 07:31:00;;;;;;;44.70;22.60;;;;;;;;;;1568350;90;20992;-86
2022/05/31 07:33:26;;;;;;;53.28;24.47;;;;;;;;;;1581284;88;21531;-87
2022/05/31 07:35:52;;;;;;;49.00;22.42;;;;;;;;;;1599239;88;21180;-86
2022/05/31 07:38:20;;;;;;;47.98;21.75;;;;;;;;;;1599479;89;21007;-84
2022/05/31 07:40:46;;;;;;;46.00;20.92;;;;;;;;;;1599013;88;21095;-87
2022/05/31 07:43:12;;;;;;;44.38;20.85;;;;;;;;;;1599390;88;21062;-88
2022/05/31 07:45:38;;;;;;;49.13;19.52;;;;;;;;;;1599383;88;21093;-87
2022/05/31 07:48:05;;;;;;;39.27;17.85;;;;;;;;;;1609463;87;21232;-85
2022/05/31 07:50:31;;;;;;;35.55;17.65;;;;;;;;;;1658315;85;21037;-86
2022/05/31 07:52:59;;;;;;;38.00;17.50;;;;;;;;;;1656275;84;21034;-86
2022/05/31 07:55:27;;;;;;;48.52;18.80;;;;;;;;;;1668346;82;20980;-86
2022/05/31 08:00:37;;;;;;;33.35;15.58;;;;;;;;;;1750540;82;21532;-84
2022/05/31 08:03:05;;;;;;;29.00;14.10;;;;;;;;;;1750421;81;20817;-85
2022/05/31 08:05:31;;;;;;;32.40;14.87;;;;;;;;;;1601624;86;21048;-86
2022/05/31 08:07:57;;;;;;;32.85;13.88;;;;;;;;;;1612334;88;21520;-82
2022/05/31 08:10:23;;;;;;;43.30;13.20;;;;;;;;;;1627144;88;21010;-87
2022/05/31 08:12:49;;;;;;;28.45;12.28;;;;;;;;;;1627011;86;21072;-86
2022/05/31 08:15:15;;;;;;;39.55;14.87;;;;;;;;;;1627082;86;20917;-85
2022/05/31 08:17:42;;;;;;;29.35;13.62;;;;;;;;;;1627323;86;20945;-85
2022/05/31 08:20:08;;;;;;;25.55;12.18;;;;;;;;;;1627322;87;21111;-86
2022/05/31 08:22:35;;;;;;;29.30;13.48;;;;;;;;;;1627392;87;20889;-84
2022/05/31 08:25:02;;;;;;;34.55;13.10;;;;;;;;;;1627227;86;21893;-86
2022/05/31 08:27:28;;;;;;;29.02;12.28;;;;;;;;;;1627274;86;21143;-86
2022/05/31 08:29:54;;;;;;;25.40;12.60;;;;;;;;;;1605690;88;21689;-86
2022/05/31 08:32:20;;;;;;;25.35;11.97;;;;;;;;;;1627291;87;20890;-85
2022/05/31 08:34:47;;;;;;;20.35;9.05;;;;;;;;;;1627569;86;21545;-84
2022/05/31 08:37:13;;;;;;;32.42;11.53;;;;;;;;;;1694450;83;21177;-86
2022/05/31 08:39:39;;;;;;;24.87;10.50;;;;;;;;;;1713857;83;20996;-86
2022/05/31 08:42:08;;;;;;;28.60;10.25;;;;;;;;;;1714077;83;20888;-85
2022/05/31 08:44:50;;;;;;;24.70;9.65;;;;;;;;;;1713763;83;21019;-88
2022/05/31 08:47:17;;;;;;;;;;;;;;;;;;1686664;84;21073;-86
2022/05/31 08:53:17;;;;;;;28.05;10.38;;;;;;;;;;1683494;84;21062;-86
2022/05/31 08:58:49;;;;;;;23.40;10.23;;;;;;;;;;1683522;84;21007;-87
2022/05/31 09:01:18;;;;;;;26.87;10.10;;;;;;;;;;1677308;85;21004;-86
2022/05/31 09:03:49;;;;;;;26.45;10.75;;;;;;;;;;1633050;87;21091;-86
2022/05/31 09:06:18;;;;;;;22.27;10.40;;;;;;;;;;1632831;87;21596;-86
2022/05/31 09:08:47;;;;;;;18.50;9.25;;;;;;;;;;1584918;90;21086;-87
2022/05/31 09:11:25;;;;;;;24.05;9.75;;;;;;;;;;1624374;88;21567;-84
2022/05/31 09:13:56;;;;;;;22.30;9.45;;;;;;;;;;1623968;88;21068;-85
2022/05/31 09:16:26;;;;;;;24.98;9.80;;;;;;;;;;1621437;88;21888;-85
2022/05/31 09:18:58;;;;;;;28.52;10.65;;;;;;;;;;1624448;88;21063;-85
2022/05/31 09:21:42;;;;;;;18.37;9.63;;;;;;;;;;1584723;90;21613;-86
2022/05/31 09:24:20;;;;;;;24.82;9.48;;;;;;;;;;1559941;91;21532;-86
2022/05/31 09:27:07;;;;;;;21.45;10.10;;;;;;;;;;1536594;93;21015;-86
2022/05/31 09:29:54;;;;;;;26.62;10.10;;;;;;;;;;1536625;93;21268;-86
2022/05/31 09:32:43;;;;;;;26.82;10.55;;;;;;;;;;1533435;93;21078;-89
2022/05/31 09:35:31;;;;;;;19.65;9.48;;;;;;;;;;1536696;92;21117;-86
2022/05/31 09:38:26;;;;;;;22.75;10.35;;;;;;;;;;1534314;93;21095;-86
2022/05/31 09:41:16;;;;;;;22.35;9.95;;;;;;;;;;1536962;92;21090;-85
2022/05/31 09:43:49;;;;;;;24.15;9.23;;;;;;;;;;1536349;93;21936;-86
2022/05/31 09:46:36;;;;;;;21.42;9.50;;;;;;;;;;1486368;96;21128;-84
2022/05/31 09:49:23;;;;;;;23.67;9.58;;;;;;;;;;1488358;96;21621;-87
2022/05/31 09:51:49;;;;;;;17.15;8.83;;;;;;;;;;1442049;99;21075;-84
2022/05/31 09:57:06;;;;;;;18.77;8.58;;;;;;;;;;1442020;99;21134;-86
2022/05/31 09:59:34;;;;;;;20.17;8.33;;;;;;;;;;1461286;98;21536;-85
2022/05/31 10:02:22;;;;;;;24.10;8.23;;;;;;;;;;1464669;96;21183;-86
2022/05/31 10:04:49;;;;;;;25.00;8.95;;;;;;;;;;1467257;96;21127;-86
2022/05/31 10:07:18;;;;;;;28.30;9.60;;;;;;;;;;1481009;96;21106;-86
2022/05/31 10:09:44;;;;;;;26.00;8.50;;;;;;;;;;1478277;96;21632;-84
2022/05/31 10:12:26;;;;;;;30.88;8.38;;;;;;;;;;1480961;96;21044;-86
2022/05/31 10:14:54;;;;;;;23.07;8.20;;;;;;;;;;1416334;101;21173;-87
2022/05/31 10:17:34;;;;;;;16.57;7.97;;;;;;;;;;1466761;96;21143;-85
2022/05/31 10:20:12;;;;;;;16.00;5.95;;;;;;;;;;1472037;97;21038;-84
2022/05/31 10:22:37;;;;;;;16.07;7.00;;;;;;;;;;1471945;97;21137;-85
2022/05/31 10:25:25;;;;;;;16.93;6.83;;;;;;;;;;1472238;96;21022;-85
2022/05/31 10:28:02;;;;;;;10.60;5.80;;;;;;;;;;1472431;94;21696;-84
2022/05/31 10:30:28;;;;;;;13.55;5.92;;;;;;;;;;1512389;94;21534;-82
2022/05/31 10:33:07;;;;;;;17.10;6.42;;;;;;;;;;1512438;94;21123;-84
2022/05/31 10:35:36;;;;;;;10.85;5.72;;;;;;;;;;1512596;94;21547;-86
2022/05/31 10:38:10;;;;;;;13.58;4.92;;;;;;;;;;1512506;94;20994;-84
2022/05/31 10:40:38;;;;;;;9.95;5.17;;;;;;;;;;1512385;94;21578;-86
2022/05/31 10:43:14;;;;;;;10.50;5.05;;;;;;;;;;1525851;93;21025;-86
2022/05/31 10:45:40;;;;;;;14.70;4.67;;;;;;;;;;1535578;93;21177;-87
2022/05/31 10:48:06;;;;;;;14.13;4.50;;;;;;;;;;1538518;93;21616;-84
2022/05/31 10:50:35;;;;;;;11.43;4.47;;;;;;;;;;1538391;93;21129;-84
2022/05/31 10:53:21;;;;;;;14.60;4.33;;;;;;;;;;1597868;89;21070;-85
2022/05/31 10:55:51;;;;;;;10.30;4.42;;;;;;;;;;1611473;89;21101;-86
2022/05/31 10:58:26;;;;;;;12.82;4.65;;;;;;;;;;1606024;89;21577;-84
2022/05/31 11:00:58;;;;;;;12.73;4.15;;;;;;;;;;1611926;89;21173;-87
2022/05/31 11:03:28;;;;;;;;;;;;;;;;;;1584583;90;21574;-85
2022/05/31 11:06:12;;;;;;;21.55;4.42;;;;;;;;;;1585099;90;20187;-86
2022/05/31 11:12:23;;;;;;;15.20;4.20;;;;;;;;;;1610223;89;21542;-85
2022/05/31 11:14:56;;;;;;;;;;;;;;;;;;1612713;89;21152;-86
2022/05/31 11:17:50;;;;;;;8.28;3.70;;;;;;;;;;1606944;88;20153;-86
2022/05/31 11:20:31;;;;;;;11.80;3.98;;;;;;;;;;1632522;86;20962;-86
2022/05/31 11:23:09;;;;;;;13.78;4.47;;;;;;;;;;1611910;89;21013;-86
2022/05/31 11:26:12;;;;;;;12.13;4.20;;;;;;;;;;1612054;89;21537;-87
2022/05/31 11:28:58;;;;;;;8.68;3.45;;;;;;;;;;1625578;88;21358;-87
2022/05/31 11:31:27;;;;;;;8.78;3.87;;;;;;;;;;1627331;88;21090;-86
2022/05/31 11:34:05;;;;;;;8.30;4.17;;;;;;;;;;1627468;88;21053;-85
2022/05/31 11:36:46;;;;;;;18.55;3.83;;;;;;;;;;1628997;88;21022;-86
2022/05/31 11:39:39;;;;;;;9.50;3.98;;;;;;;;;;1630881;88;21019;-85
2022/05/31 11:42:21;;;;;;;11.30;3.70;;;;;;;;;;1629514;88;21246;-85
2022/05/31 11:44:56;;;;;;;9.28;4.25;;;;;;;;;;1627585;88;21086;-85
2022/05/31 11:47:48;;;;;;;13.50;4.37;;;;;;;;;;1630840;88;21137;-87
2022/05/31 11:50:23;;;;;;;8.80;3.98;;;;;;;;;;1630499;88;21065;-85
2022/05/31 11:53:00;;;;;;;17.50;4.22;;;;;;;;;;1516596;94;21659;-87
2022/05/31 11:55:35;;;;;;;12.28;3.50;;;;;;;;;;1518022;93;21119;-85
2022/05/31 11:58:20;;;;;;;9.80;3.55;;;;;;;;;;1523162;93;21579;-85
2022/05/31 12:01:12;;;;;;;13.03;3.72;;;;;;;;;;1520578;94;21109;-85
2022/05/31 12:04:13;;;;;;;11.33;4.58;;;;;;;;;;1523368;93;21097;-86
2022/05/31 12:06:43;;;;;;;17.92;4.70;;;;;;;;;;1523256;93;21049;-85
2022/05/31 12:09:26;;;;;;;9.68;3.52;;;;;;;;;;1477624;97;21152;-87
2022/05/31 12:12:04;;;;;;;17.25;4.00;;;;;;;;;;1477579;97;21111;-86
2022/05/31 12:14:37;;;;;;;15.10;4.40;;;;;;;;;;1477592;97;33773;-87
2022/05/31 12:17:04;;;;;;;9.38;3.25;;;;;;;;;;1480634;95;21141;-87
2022/05/31 12:19:39;;;;;;;7.87;3.27;;;;;;;;;;1483121;96;21152;-87
2022/05/31 12:22:08;;;;;;;8.78;3.75;;;;;;;;;;1483773;96;21130;-85
2022/05/31 12:24:40;;;;;;;10.65;3.67;;;;;;;;;;1483739;96;21081;-86
2022/05/31 12:27:16;;;;;;;;;;;;;;;;;;1486279;96;21635;-87
2022/05/31 12:29:49;;;;;;;10.78;3.70;;;;;;;;;;1460071;98;20231;-86
2022/05/31 12:32:22;;;;;;;;;;;;;;;;;;1462426;98;21039;-86
2022/05/31 12:34:47;;;;;;;9.63;4.17;;;;;;;;;;1460164;98;21131;-86
2022/05/31 12:37:14;;;;;;;10.35;3.50;;;;;;;;;;1460150;98;21046;-86
2022/05/31 12:39:43;;;;;;;17.12;4.35;;;;;;;;;;1460131;98;21615;-88
2022/05/31 12:42:12;;;;;;;12.78;3.85;;;;;;;;;;1446817;98;21133;-86
2022/05/31 12:44:38;;;;;;;15.25;3.40;;;;;;;;;;1433836;99;21156;-87
2022/05/31 12:47:15;;;;;;;12.55;3.37;;;;;;;;;;1433858;99;21781;-86
2022/05/31 12:49:56;;;;;;;13.55;3.98;;;;;;;;;;1454232;96;21095;-86
2022/05/31 12:55:26;;;;;;;12.88;3.90;;;;;;;;;;1481571;96;21156;-87
2022/05/31 12:58:30;;;;;;;13.95;4.50;;;;;;;;;;1482053;96;21833;-88
2022/05/31 13:01:01;;;;;;;14.35;4.42;;;;;;;;;;1481465;96;21168;-88
2022/05/31 13:03:39;;;;;;;19.23;4.47;;;;;;;;;;1479310;96;21102;-92
2022/05/31 13:06:09;;;;;;;12.82;3.75;;;;;;;;;;1490879;95;21071;-87
2022/05/31 13:20:00;;;;;;;9.85;3.92;;;;;;;;;;1494995;95;20477;-85
2022/05/31 13:22:26;;;;;;;11.40;4.20;;;;;;;;;;1521140;92;21235;-86
2022/05/31 13:25:02;;;;;;;14.68;4.17;;;;;;;;;;1560008;87;21237;-86
2022/05/31 13:27:30;;;;;;;17.85;4.30;;;;;;;;;;1630310;87;21134;-85
2022/05/31 13:30:01;;;;;;;12.37;4.00;;;;;;;;;;1567234;91;21036;-87
2022/05/31 13:32:32;;;;;;;15.38;3.80;;;;;;;;;;1567485;91;21091;-87
2022/05/31 13:34:58;;;;;;;11.50;4.10;;;;;;;;;;1567767;90;21545;-85
2022/05/31 13:37:24;;;;;;;12.25;3.55;;;;;;;;;;1567377;90;21969;-85
2022/05/31 13:39:50;;;;;;;14.03;4.65;;;;;;;;;;1588888;90;21196;-87
2022/05/31 13:42:19;;;;;;;15.75;4.95;;;;;;;;;;1593446;90;21075;-84
2022/05/31 13:44:45;;;;;;;17.37;4.45;;;;;;;;;;1518603;93;21119;-84
2022/05/31 13:47:15;;;;;;;11.15;4.33;;;;;;;;;;1518941;94;21005;-87
2022/05/31 13:49:43;;;;;;;13.25;5.28;;;;;;;;;;1519266;94;21122;-85
2022/05/31 13:52:22;;;;;;;15.98;4.85;;;;;;;;;;1518834;94;21179;-83
2022/05/31 13:54:48;;;;;;;12.95;4.92;;;;;;;;;;1518529;94;21249;-87
2022/05/31 13:57:17;;;;;;;16.45;5.15;;;;;;;;;;1518902;94;21733;-85
2022/05/31 13:59:48;;;;;;;19.85;4.87;;;;;;;;;;1518760;94;21047;-83
2022/05/31 14:02:17;;;;;;;12.78;5.20;;;;;;;;;;1519148;94;21691;-87
2022/05/31 14:04:44;;;;;;;16.52;5.65;;;;;;;;;;1514952;92;21130;-85
2022/05/31 14:07:13;;;;;;;19.50;6.53;;;;;;;;;;1546865;92;21061;-86
2022/05/31 14:09:41;;;;;;;15.28;5.58;;;;;;;;;;1544289;92;21712;-86
2022/05/31 14:12:09;;;;;;;18.32;6.22;;;;;;;;;;1544225;92;21143;-91
2022/05/31 14:14:43;;;;;;;14.75;6.05;;;;;;;;;;1547378;92;21094;-87
2022/05/31 14:17:08;;;;;;;16.97;6.00;;;;;;;;;;1541476;91;21180;-87
2022/05/31 14:19:39;;;;;;;14.13;4.60;;;;;;;;;;1493095;96;21132;-87
2022/05/31 14:22:30;;;;;;;20.30;5.95;;;;;;;;;;1492870;96;21129;-87
2022/05/31 14:24:57;;;;;;;17.73;4.95;;;;;;;;;;1492954;96;21269;-87
2022/05/31 14:27:26;;;;;;;15.50;5.33;;;;;;;;;;1526294;92;21057;-88
2022/05/31 14:30:04;;;;;;;10.25;4.50;;;;;;;;;;1538358;92;21097;-86
2022/05/31 14:32:33;;;;;;;9.60;4.67;;;;;;;;;;1539091;93;21004;-86
2022/05/31 14:34:59;;;;;;;11.05;4.75;;;;;;;;;;1539436;93;21580;-88
2022/05/31 14:37:28;;;;;;;14.20;4.65;;;;;;;;;;1539468;93;21064;-88
2022/05/31 14:40:03;;;;;;;9.38;4.80;;;;;;;;;;1445732;99;21148;-88
2022/05/31 14:42:29;;;;;;;16.93;4.67;;;;;;;;;;1428754;97;21113;-88
2022/05/31 14:44:55;;;;;;;19.32;5.35;;;;;;;;;;1459262;97;21570;-87
2022/05/31 14:47:24;;;;;;;13.40;4.70;;;;;;;;;;1468751;97;20923;-87
2022/05/31 14:50:06;;;;;;;13.15;5.35;;;;;;;;;;1468509;97;21089;-86
2022/05/31 14:52:41;;;;;;;22.90;5.30;;;;;;;;;;1468797;97;21041;-87
2022/05/31 14:55:16;;;;;;;16.30;5.58;;;;;;;;;;1469108;96;22029;-89
2022/05/31 15:00:30;;;;;;;17.25;6.72;;;;;;;;;;1471649;96;21141;-87
2022/05/31 15:02:56;;;;;;;16.23;5.92;;;;;;;;;;1487203;96;21094;-87
2022/05/31 15:05:25;;;;;;;18.32;6.67;;;;;;;;;;1486935;96;21019;-88
2022/05/31 15:07:59;;;;;;;21.70;7.40;;;;;;;;;;1456448;98;21210;-90
2022/05/31 15:10:31;;;;;;;18.20;6.83;;;;;;;;;;1462117;98;21643;-87
2022/05/31 15:21:19;;;;;;;26.35;7.10;;;;;;;;;;1490602;95;21200;-87
2022/05/31 15:23:44;;;;;;;23.38;6.70;;;;;;;;;;1490489;96;21184;-87
2022/05/31 15:26:15;;;;;;;15.78;5.97;;;;;;;;;;1472189;96;21084;-89
2022/05/31 15:28:41;;;;;;;12.25;4.97;;;;;;;;;;1490347;94;21605;-86
2022/05/31 15:31:08;;;;;;;19.10;5.72;;;;;;;;;;1542194;92;21014;-87
2022/05/31 15:33:34;;;;;;;21.73;6.12;;;;;;;;;;1554003;92;22285;-85
2022/05/31 15:35:59;;;;;;;16.40;5.65;;;;;;;;;;1554052;92;21161;-86
2022/05/31 15:38:27;;;;;;;18.48;5.92;;;;;;;;;;1554263;92;21005;-87